Pagrindinis puslapis
METAR-TAF:

METAR-TAF

Oro uostai :

Abu Dabis, Jungtiniai Arabų Emyratai

platuma: 24-26N, ilguma: 054-39E, Aukštis: 16 m

Dabartinis oras

Ataskaita buvo paskelbta 29 minutes, ne 14:00 UTC
Vėjas 11 kt iš Šiaurės/Šiaurės Vakarų
Temperatūra 28°C
Drėgmė 58%
Slėgis 1007 hPa
Matomumas 10 km arba daugiau
nėra debesų žemiau 1500 m ir nėra kamuolinių lietaus debesų

METAR: OMAA 201400Z 33011KT CAVOK 28/19 Q1007 NOSIG

Laikas: 18:29 (14:29 UTC)

Prognozė

Ataskaita buvo paskelbta 3 valandos ir 29 minutes, ne 11:00 UTC
Prognozė galioja nuo 20 metu 12 UTC su 21 metu 18 UTC
Vėjas 13 kt iš Šiaurės/Šiaurės Vakarų
Matomumas: 8000 m
Tapsmas
nuo 20 metu 17 UTC su 20 metu 19 UTC
Vėjas 5 kt iš Rytų
Tikimybė 30%
nuo 21 metu 01 UTC su 21 metu 04 UTC
Matomumas: 4000 m
migla
Tapsmas
nuo 21 metu 09 UTC su 21 metu 11 UTC
Vėjas 11 kt iš Šiaurės/Šiaurės Vakarų

TAF: OMAA 201100Z 2012/2118 33013KT 8000 NSC BECMG 2017/2019 08005KT PROB30 2101/2104 4000 HZ BECMG 2109/2111 34011KT

Orai ataskaitas ir orų prognozės (METAR, TAF).

turimą stotys yra geltonos ir raudonos taškus žemėlapyje.

Perkelti pele per norėdami pamatyti stoties vardą.

Tada spustelėkite, norėdami matyti oro stebėjimo ir prognozės.

Norėdami pakeisti žemėlapį: spustelėkite ant žalios mygtukų su juodo kryžiaus žemyn,; žalią mygtuką su brūkšneliu, jei norite nutolinti; arba žalių rodyklių gretimoms žemėlapius.


METAR-TAF: